Time;durP1;ratioP1;P1;durP2;ratioP2;P2;SDS_P1;SDS_P2;PMS_P1;PMS_P2;Temp;Humidity;BMP_temperature;BMP_pressure;BME280_temperature;BME280_humidity;BME280_pressure;Samples;Min_cycle;Max_cycle;Signal;HPM_P1;HPM_P2
2024/03/24 00:00:29;;;;;;;5.88;2.75;;;7.00;99.90;;;;;;5026177;28;20755;-82
2024/03/24 00:02:54;;;;;;;8.90;3.15;;;6.90;99.90;;;;;;5030067;28;20028;-85
2024/03/24 00:05:20;;;;;;;7.53;2.78;;;6.90;99.90;;;;;;5030661;28;20048;-84
2024/03/24 00:07:45;;;;;;;10.32;3.30;;;6.90;99.90;;;;;;5031331;28;20466;-85
2024/03/24 00:10:12;;;;;;;10.48;2.95;;;7.00;99.90;;;;;;5037808;28;20032;-85
2024/03/24 00:12:38;;;;;;;4.35;3.10;;;7.00;99.90;;;;;;5039579;28;20018;-84
2024/03/24 00:15:04;;;;;;;6.85;2.47;;;7.50;99.90;;;;;;5031380;28;20036;-84
2024/03/24 00:17:29;;;;;;;4.53;2.13;;;7.10;99.90;;;;;;5032010;28;20107;-84
2024/03/24 00:19:55;;;;;;;6.88;2.80;;;7.20;99.90;;;;;;5031951;28;20029;-84
2024/03/24 00:22:21;;;;;;;4.30;2.50;;;7.30;99.90;;;;;;5031588;28;20470;-85
2024/03/24 00:24:46;;;;;;;3.80;2.13;;;7.30;99.90;;;;;;5031970;28;20461;-85
2024/03/24 00:27:12;;;;;;;4.50;2.30;;;7.30;99.90;;;;;;5016789;28;20049;-85
2024/03/24 00:29:38;;;;;;;7.07;2.25;;;7.40;99.90;;;;;;5011213;28;20100;-84
2024/03/24 00:32:04;;;;;;;3.47;1.90;;;7.30;99.90;;;;;;5031295;28;20025;-85
2024/03/24 00:34:29;;;;;;;5.28;2.50;;;7.30;99.90;;;;;;5032129;28;20030;-84
2024/03/24 00:36:55;;;;;;;6.50;1.73;;;7.30;99.90;;;;;;5036375;28;20423;-85
2024/03/24 00:39:20;;;;;;;9.60;2.72;;;7.30;99.90;;;;;;5050577;28;20039;-85
2024/03/24 00:41:46;;;;;;;5.50;2.05;;;7.30;99.90;;;;;;5016271;28;20037;-83
2024/03/24 00:44:11;;;;;;;3.92;1.95;;;7.30;99.90;;;;;;5011514;28;20421;-85
2024/03/24 00:46:37;;;;;;;6.35;2.38;;;7.30;99.90;;;;;;5011643;28;20030;-85
2024/03/24 00:49:03;;;;;;;6.20;2.60;;;7.40;99.90;;;;;;5011795;28;20038;-83
2024/03/24 00:51:29;;;;;;;8.90;2.33;;;7.40;99.90;;;;;;5022211;28;20033;-83
2024/03/24 00:53:54;;;;;;;7.85;3.92;;;7.40;99.90;;;;;;5029159;28;20101;-85
2024/03/24 00:56:20;;;;;;;11.02;3.03;;;7.40;99.90;;;;;;5029917;28;20025;-82
2024/03/24 00:58:45;;;;;;;14.93;2.40;;;7.40;99.90;;;;;;5030997;28;20024;-85
2024/03/24 01:01:11;;;;;;;8.65;2.85;;;7.40;99.90;;;;;;5030919;28;20022;-84
2024/03/24 01:03:36;;;;;;;9.25;2.58;;;7.40;99.90;;;;;;5031423;28;20033;-84
2024/03/24 01:06:04;;;;;;;9.20;3.28;;;7.50;99.90;;;;;;5030871;28;20044;-85
2024/03/24 01:08:29;;;;;;;7.82;3.40;;;7.40;99.90;;;;;;5034382;28;20353;-84
2024/03/24 01:10:55;;;;;;;13.25;4.45;;;7.40;99.90;;;;;;5031133;28;20221;-82
2024/03/24 01:13:22;;;;;;;11.10;3.60;;;7.40;99.90;;;;;;5034700;28;20052;-84
2024/03/24 01:15:47;;;;;;;11.40;3.17;;;7.40;99.90;;;;;;5034230;28;20385;-85
2024/03/24 01:18:13;;;;;;;15.30;4.22;;;7.40;99.90;;;;;;5034471;28;20029;-85
2024/03/24 01:20:38;;;;;;;16.70;4.57;;;7.50;99.90;;;;;;5034565;28;20032;-84
2024/03/24 01:23:04;;;;;;;15.43;4.20;;;7.50;99.90;;;;;;5053054;28;20017;-84
2024/03/24 01:25:31;;;;;;;14.57;4.57;;;7.50;99.90;;;;;;5051610;28;20029;-85
2024/03/24 01:27:57;;;;;;;13.57;4.10;;;7.50;99.90;;;;;;5054747;28;20021;-85
2024/03/24 01:30:22;;;;;;;15.60;4.18;;;7.50;99.90;;;;;;5040814;28;20041;-85
2024/03/24 01:32:48;;;;;;;14.00;4.28;;;7.60;99.90;;;;;;5035392;28;20092;-84
2024/03/24 01:35:15;;;;;;;12.82;4.53;;;7.60;99.90;;;;;;5031420;28;20117;-84
2024/03/24 01:37:40;;;;;;;15.27;4.65;;;7.60;99.90;;;;;;5029011;28;20083;-84
2024/03/24 01:40:07;;;;;;;15.05;4.07;;;7.60;99.90;;;;;;5017770;28;20026;-84
2024/03/24 01:42:32;;;;;;;10.98;3.63;;;7.60;99.90;;;;;;5025598;28;20144;-84
2024/03/24 01:44:58;;;;;;;9.73;3.72;;;7.60;99.90;;;;;;5054382;28;20116;-84
2024/03/24 01:47:23;;;;;;;5.22;2.30;;;7.60;99.90;;;;;;5054333;28;20032;-85
2024/03/24 01:49:49;;;;;;;12.10;2.35;;;7.50;99.90;;;;;;5054832;28;20068;-85
2024/03/24 01:52:15;;;;;;;4.10;2.30;;;7.50;99.90;;;;;;5033895;28;20017;-85
2024/03/24 01:54:40;;;;;;;5.85;2.05;;;7.40;99.90;;;;;;5034905;28;20458;-85
2024/03/24 01:57:06;;;;;;;7.20;2.35;;;7.30;99.90;;;;;;5014913;28;20071;-85
2024/03/24 01:59:32;;;;;;;11.18;2.88;;;7.20;99.90;;;;;;5014819;28;20026;-85
2024/03/24 02:01:58;;;;;;;6.55;2.90;;;7.20;99.90;;;;;;5050541;28;20032;-85
2024/03/24 02:04:23;;;;;;;11.50;2.92;;;7.20;99.90;;;;;;5054649;28;20029;-85
2024/03/24 02:06:49;;;;;;;27.02;5.82;;;7.20;99.90;;;;;;5054622;28;20047;-85
2024/03/24 02:09:14;;;;;;;8.05;3.17;;;7.10;99.90;;;;;;5053047;28;20025;-84
2024/03/24 02:11:40;;;;;;;7.65;2.95;;;7.20;99.90;;;;;;5034568;28;20044;-85
2024/03/24 02:14:06;;;;;;;10.68;3.85;;;7.10;99.90;;;;;;5033392;28;20037;-83
2024/03/24 02:16:32;;;;;;;10.55;4.03;;;7.20;99.90;;;;;;5051901;28;20083;-86
2024/03/24 02:18:58;;;;;;;10.05;3.67;;;7.20;99.90;;;;;;5053920;28;20424;-85
2024/03/24 02:21:23;;;;;;;13.80;4.15;;;7.10;99.90;;;;;;5053631;28;20025;-85
2024/03/24 02:23:49;;;;;;;20.05;5.25;;;7.20;99.90;;;;;;5053969;28;20469;-84
2024/03/24 02:26:15;;;;;;;9.43;4.63;;;7.20;99.90;;;;;;5028549;28;20385;-84
2024/03/24 02:28:41;;;;;;;26.00;5.60;;;7.20;99.90;;;;;;5013848;28;20110;-84
2024/03/24 02:31:07;;;;;;;14.23;4.25;;;7.30;99.90;;;;;;5013768;28;20132;-84
2024/03/24 02:33:33;;;;;;;22.08;6.05;;;7.30;99.90;;;;;;5018021;28;20510;-84
2024/03/24 02:35:58;;;;;;;21.58;4.47;;;7.40;99.90;;;;;;5021147;28;20033;-84
2024/03/24 02:38:24;;;;;;;12.43;4.63;;;7.50;99.90;;;;;;5032811;28;20029;-84
2024/03/24 02:40:49;;;;;;;22.42;5.88;;;7.50;99.90;;;;;;5042802;28;20025;-84
2024/03/24 02:43:15;;;;;;;14.57;4.03;;;7.50;99.90;;;;;;5039103;28;20184;-84
2024/03/24 02:45:41;;;;;;;15.77;4.00;;;7.60;99.90;;;;;;5033828;28;20048;-85
2024/03/24 02:48:07;;;;;;;13.82;3.70;;;7.60;99.90;;;;;;5033801;28;20026;-85
2024/03/24 02:50:33;;;;;;;11.75;4.35;;;7.60;99.90;;;;;;5033156;28;20041;-84
2024/03/24 02:52:59;;;;;;;19.80;4.90;;;7.60;99.90;;;;;;5032359;28;20101;-84
2024/03/24 02:55:25;;;;;;;18.98;4.40;;;8.30;99.90;;;;;;5032510;28;20499;-85
2024/03/24 02:57:54;;;;;;;17.88;5.45;;;7.60;99.90;;;;;;5032365;28;20018;-84
2024/03/24 03:00:20;;;;;;;25.47;5.60;;;7.60;99.90;;;;;;5037043;28;20040;-85
2024/03/24 03:02:46;;;;;;;16.65;4.30;;;7.60;99.90;;;;;;5052767;28;20017;-84
2024/03/24 03:05:12;;;;;;;19.23;4.40;;;7.60;99.90;;;;;;5052742;28;20059;-85
2024/03/24 03:07:38;;;;;;;24.38;5.32;;;7.60;99.90;;;;;;5053104;28;20105;-83
2024/03/24 03:10:07;;;;;;;22.98;5.80;;;7.70;99.90;;;;;;5052022;28;20045;-83
2024/03/24 03:12:34;;;;;;;19.63;5.30;;;7.70;99.90;;;;;;5052844;28;20025;-84
2024/03/24 03:14:59;;;;;;;21.80;4.63;;;7.70;99.90;;;;;;5052747;28;20029;-84
2024/03/24 03:17:25;;;;;;;21.75;4.32;;;7.70;99.90;;;;;;5053086;28;20104;-83
2024/03/24 03:19:50;;;;;;;16.65;4.65;;;7.70;99.90;;;;;;5052894;28;20099;-84
2024/03/24 03:22:16;;;;;;;28.77;5.22;;;7.70;99.90;;;;;;5045104;28;20438;-83
2024/03/24 03:24:41;;;;;;;24.45;4.75;;;7.80;99.90;;;;;;5029051;28;20379;-86
2024/03/24 03:27:07;;;;;;;20.77;5.43;;;7.70;99.90;;;;;;5015998;28;20385;-84
2024/03/24 03:29:32;;;;;;;18.08;5.80;;;7.70;99.90;;;;;;5012970;28;20033;-83
2024/03/24 03:31:58;;;;;;;23.20;4.97;;;7.70;99.90;;;;;;5011941;28;20026;-84
2024/03/24 03:34:23;;;;;;;22.80;4.95;;;7.60;99.90;;;;;;5012846;28;20114;-84
2024/03/24 03:36:49;;;;;;;26.02;5.95;;;7.60;99.90;;;;;;5012961;28;20057;-84
2024/03/24 03:39:15;;;;;;;21.63;5.60;;;7.50;99.90;;;;;;5013501;28;20042;-84
2024/03/24 03:41:43;;;;;;;25.25;6.13;;;7.60;99.90;;;;;;5012597;28;20110;-84
2024/03/24 03:44:09;;;;;;;10.23;2.92;;;7.60;99.90;;;;;;5012917;28;20390;-84
2024/03/24 03:46:34;;;;;;;3.85;1.50;;;7.60;99.90;;;;;;5020251;28;20029;-84
2024/03/24 03:49:01;;;;;;;4.82;1.17;;;7.50;99.90;;;;;;5030915;28;20047;-84
2024/03/24 03:51:36;;;;;;;7.05;1.80;;;7.40;99.90;;;;;;5030980;28;20052;-84
2024/03/24 03:54:03;;;;;;;5.00;1.05;;;7.30;99.90;;;;;;5031393;28;20017;-83
2024/03/24 03:56:29;;;;;;;5.30;1.15;;;7.20;99.90;;;;;;5050737;28;20110;-84
2024/03/24 03:58:54;;;;;;;6.60;1.13;;;7.10;99.90;;;;;;5025791;28;20053;-84
2024/03/24 04:01:20;;;;;;;3.28;0.85;;;7.00;99.90;;;;;;5013453;28;20125;-84
2024/03/24 04:03:46;;;;;;;2.95;1.05;;;6.90;99.90;;;;;;5031531;28;20029;-84
2024/03/24 04:06:11;;;;;;;7.93;1.00;;;6.90;99.90;;;;;;5029825;28;20030;-83
2024/03/24 04:08:39;;;;;;;6.63;1.20;;;6.90;99.90;;;;;;5029977;28;20077;-83
2024/03/24 04:11:07;;;;;;;6.10;0.88;;;6.80;99.90;;;;;;5030455;28;20045;-84
2024/03/24 04:13:32;;;;;;;4.45;1.77;;;6.80;99.90;;;;;;5031437;28;20513;-84
2024/03/24 04:15:58;;;;;;;3.40;1.13;;;6.70;99.90;;;;;;5031037;28;20160;-84
2024/03/24 04:18:23;;;;;;;4.20;0.70;;;6.70;99.90;;;;;;5031348;28;20032;-84
2024/03/24 04:20:49;;;;;;;4.78;1.35;;;6.70;99.90;;;;;;5031018;28;20075;-85
2024/03/24 04:23:14;;;;;;;2.28;0.73;;;6.80;99.90;;;;;;5031903;28;20025;-84
2024/03/24 04:25:40;;;;;;;3.28;1.00;;;6.80;99.90;;;;;;5027240;28;20033;-85
2024/03/24 04:28:05;;;;;;;1.35;0.73;;;6.70;99.90;;;;;;5011272;28;20030;-85
2024/03/24 04:30:32;;;;;;;4.40;1.20;;;6.70;99.90;;;;;;5014839;28;20064;-85
2024/03/24 04:33:01;;;;;;;12.32;1.15;;;6.70;99.90;;;;;;5019487;28;20036;-84
2024/03/24 04:35:27;;;;;;;5.70;1.50;;;6.70;99.90;;;;;;5013561;28;20482;-84
2024/03/24 04:37:53;;;;;;;4.20;1.00;;;6.70;99.90;;;;;;5011420;28;20034;-83
2024/03/24 04:40:19;;;;;;;6.03;1.55;;;6.70;99.90;;;;;;5028804;28;20075;-83
2024/03/24 04:42:47;;;;;;;12.07;1.60;;;6.60;99.90;;;;;;5029054;28;20044;-83
2024/03/24 04:45:12;;;;;;;4.72;2.03;;;6.60;99.90;;;;;;5031198;28;20068;-84
2024/03/24 04:47:38;;;;;;;5.60;1.50;;;6.60;99.90;;;;;;5031277;28;20427;-83
2024/03/24 04:50:05;;;;;;;3.50;1.10;;;6.60;99.90;;;;;;5026430;28;20387;-84
2024/03/24 04:52:30;;;;;;;8.32;1.55;;;6.60;99.90;;;;;;5023397;28;20492;-84
2024/03/24 04:54:57;;;;;;;4.22;1.23;;;6.60;99.90;;;;;;5011782;28;20096;-84
2024/03/24 04:57:22;;;;;;;4.07;1.25;;;6.60;99.90;;;;;;5011781;28;20041;-88
2024/03/24 04:59:48;;;;;;;2.88;1.67;;;6.60;99.90;;;;;;5011991;28;20052;-85
2024/03/24 05:02:14;;;;;;;3.35;1.52;;;6.60;99.90;;;;;;5011397;28;20381;-84
2024/03/24 05:04:40;;;;;;;4.97;1.40;;;6.60;99.90;;;;;;5027322;28;20033;-84
2024/03/24 05:07:05;;;;;;;4.22;1.27;;;6.60;99.90;;;;;;5030474;28;20050;-84
2024/03/24 05:09:31;;;;;;;4.18;1.42;;;6.60;99.90;;;;;;5028784;28;20489;-84
2024/03/24 05:11:56;;;;;;;4.13;1.25;;;6.60;99.90;;;;;;5015361;28;20059;-84
2024/03/24 05:14:22;;;;;;;3.78;1.42;;;6.60;99.90;;;;;;5029784;28;20037;-84
2024/03/24 05:16:48;;;;;;;2.83;1.65;;;6.60;99.90;;;;;;5030949;28;20017;-84
2024/03/24 05:19:13;;;;;;;7.70;1.52;;;6.70;99.90;;;;;;5020911;28;20040;-83
2024/03/24 05:21:40;;;;;;;3.85;1.25;;;6.70;99.90;;;;;;5011673;28;20486;-84
2024/03/24 05:24:06;;;;;;;5.88;1.45;;;6.70;99.90;;;;;;5011303;28;20091;-84
2024/03/24 05:26:33;;;;;;;3.00;1.23;;;6.70;99.90;;;;;;5043947;28;20128;-83
2024/03/24 05:29:01;;;;;;;2.90;1.30;;;6.70;99.90;;;;;;5030822;28;20026;-84
2024/03/24 05:31:27;;;;;;;4.28;1.20;;;6.70;99.90;;;;;;5028867;28;20046;-84
2024/03/24 05:33:53;;;;;;;6.55;2.40;;;6.70;99.90;;;;;;5029386;28;20025;-84
2024/03/24 05:36:18;;;;;;;6.03;1.83;;;6.80;99.90;;;;;;5030536;28;20025;-84
2024/03/24 05:38:44;;;;;;;5.13;1.92;;;6.80;99.90;;;;;;5025963;28;20022;-84
2024/03/24 05:41:10;;;;;;;12.27;2.10;;;6.80;99.90;;;;;;5013720;28;20069;-84
2024/03/24 05:43:36;;;;;;;6.43;2.15;;;6.70;99.90;;;;;;5019459;28;20103;-84
2024/03/24 05:46:03;;;;;;;6.03;2.58;;;6.70;99.90;;;;;;5030159;28;20029;-83
2024/03/24 05:48:29;;;;;;;7.57;2.42;;;6.60;99.90;;;;;;5031373;28;20147;-84
2024/03/24 05:51:02;;;;;;;7.63;2.88;;;6.70;99.90;;;;;;5030667;28;20651;-83
2024/03/24 05:53:28;;;;;;;11.23;3.35;;;6.70;99.90;;;;;;5031297;28;20032;-84
2024/03/24 05:55:54;;;;;;;8.32;2.67;;;6.70;99.90;;;;;;5031141;28;20082;-83
2024/03/24 05:58:20;;;;;;;13.93;4.45;;;6.80;99.90;;;;;;5022219;28;20026;-85
2024/03/24 06:00:49;;;;;;;13.93;3.80;;;6.80;99.90;;;;;;5015052;28;20057;-85
2024/03/24 06:03:14;;;;;;;11.30;4.05;;;6.90;99.90;;;;;;5052669;28;20024;-85
2024/03/24 06:05:40;;;;;;;17.67;4.32;;;6.90;99.90;;;;;;5054532;28;20435;-85
2024/03/24 06:08:10;;;;;;;14.30;5.55;;;7.00;99.90;;;;;;5038785;28;20029;-84
2024/03/24 06:10:38;;;;;;;18.95;4.65;;;7.00;99.90;;;;;;5025881;28;20396;-85
2024/03/24 06:13:04;;;;;;;19.38;5.55;;;7.00;99.90;;;;;;5023339;28;20092;-86
2024/03/24 06:15:30;;;;;;;17.75;4.72;;;7.10;99.90;;;;;;5018886;28;20040;-84
2024/03/24 06:17:55;;;;;;;14.50;4.40;;;7.10;99.90;;;;;;5019129;28;20224;-86
2024/03/24 06:20:21;;;;;;;17.90;4.82;;;7.10;99.90;;;;;;5028287;28;20021;-86
2024/03/24 06:22:47;;;;;;;18.23;4.45;;;7.10;99.90;;;;;;5023215;28;20021;-84
2024/03/24 06:25:12;;;;;;;18.95;4.25;;;7.10;99.90;;;;;;5024928;28;20026;-84
2024/03/24 06:27:38;;;;;;;16.27;4.55;;;7.10;99.90;;;;;;5012282;28;20028;-86
2024/03/24 06:30:04;;;;;;;17.45;4.28;;;7.10;99.90;;;;;;5016703;28;20030;-85
2024/03/24 06:32:29;;;;;;;12.30;4.55;;;7.10;99.90;;;;;;5024865;28;20030;-85
2024/03/24 06:34:55;;;;;;;19.70;4.93;;;7.20;99.90;;;;;;5020115;28;20442;-86
2024/03/24 06:37:21;;;;;;;23.88;6.20;;;7.20;99.90;;;;;;5016901;28;20030;-87
2024/03/24 06:39:48;;;;;;;17.60;4.78;;;7.10;99.90;;;;;;5023291;28;20034;-85
2024/03/24 06:42:14;;;;;;;22.23;5.75;;;7.20;99.90;;;;;;5021047;28;20065;-85
2024/03/24 06:44:41;;;;;;;26.52;4.80;;;7.20;99.90;;;;;;5029041;28;20044;-85
2024/03/24 06:47:07;;;;;;;14.07;4.65;;;7.20;99.90;;;;;;5028393;28;20037;-85
2024/03/24 06:49:33;;;;;;;21.23;5.30;;;7.20;99.90;;;;;;5018611;28;20042;-85
2024/03/24 06:51:58;;;;;;;12.48;4.00;;;7.20;99.90;;;;;;5026480;28;20052;-85
2024/03/24 06:54:24;;;;;;;24.30;4.65;;;7.20;99.90;;;;;;5020679;28;20025;-85
2024/03/24 06:56:49;;;;;;;23.20;5.13;;;7.20;99.90;;;;;;5020046;28;20060;-84
2024/03/24 06:59:15;;;;;;;19.60;4.43;;;7.20;99.90;;;;;;5018995;28;20045;-84
2024/03/24 07:01:41;;;;;;;27.67;4.95;;;7.20;99.90;;;;;;5016518;28;20038;-85
2024/03/24 07:04:06;;;;;;;16.00;3.70;;;7.30;99.90;;;;;;5014659;28;20469;-84
2024/03/24 07:06:32;;;;;;;21.60;5.32;;;7.30;99.90;;;;;;5023665;28;20030;-85
2024/03/24 07:08:58;;;;;;;20.77;4.22;;;7.40;99.90;;;;;;5021400;28;20033;-85
2024/03/24 07:11:23;;;;;;;17.23;5.65;;;7.40;99.90;;;;;;5022294;28;20489;-83
2024/03/24 07:13:49;;;;;;;17.83;4.47;;;7.40;99.90;;;;;;5020433;28;20497;-85
2024/03/24 07:16:14;;;;;;;12.63;4.45;;;7.50;99.90;;;;;;5023690;28;20055;-84
2024/03/24 07:18:40;;;;;;;18.10;3.95;;;7.50;99.90;;;;;;5023817;28;20030;-85
2024/03/24 07:21:07;;;;;;;24.05;4.97;;;7.50;99.90;;;;;;5013899;28;20426;-85
2024/03/24 07:23:33;;;;;;;14.68;3.85;;;7.50;99.90;;;;;;5022876;28;20115;-84
2024/03/24 07:25:58;;;;;;;14.45;3.72;;;7.50;99.90;;;;;;5018359;28;20111;-84
2024/03/24 07:28:24;;;;;;;18.10;4.13;;;7.50;99.90;;;;;;5019109;28;20474;-84
2024/03/24 07:30:49;;;;;;;19.15;3.95;;;7.60;99.90;;;;;;5024040;28;20095;-84
2024/03/24 07:33:15;;;;;;;13.55;3.42;;;7.60;99.90;;;;;;5013083;28;20095;-83
2024/03/24 07:35:41;;;;;;;18.63;4.10;;;7.60;99.90;;;;;;5034149;28;20036;-83
2024/03/24 07:38:07;;;;;;;20.75;4.85;;;7.70;99.90;;;;;;5050460;28;20056;-84
2024/03/24 07:40:33;;;;;;;16.65;4.32;;;7.70;99.90;;;;;;5036070;28;20065;-85
2024/03/24 07:42:58;;;;;;;20.77;4.70;;;7.80;99.90;;;;;;5027742;28;20147;-84
2024/03/24 07:45:24;;;;;;;12.52;3.50;;;7.80;99.90;;;;;;5013386;28;20057;-83
2024/03/24 07:47:51;;;;;;;14.35;3.88;;;7.90;99.90;;;;;;5024255;28;20079;-84
2024/03/24 07:50:17;;;;;;;16.08;3.08;;;7.90;99.90;;;;;;5012949;28;20038;-84
2024/03/24 07:52:43;;;;;;;14.00;3.75;;;8.00;99.90;;;;;;5012016;28;20101;-84
2024/03/24 07:55:08;;;;;;;13.93;3.28;;;8.00;99.90;;;;;;5013001;28;20125;-84
2024/03/24 07:57:34;;;;;;;18.83;3.38;;;8.00;99.90;;;;;;5012756;28;20022;-84
2024/03/24 08:00:00;;;;;;;12.00;3.63;;;8.00;99.90;;;;;;5011791;28;20029;-85
2024/03/24 08:02:26;;;;;;;13.15;3.22;;;8.00;99.90;;;;;;5012473;28;20096;-84
2024/03/24 08:04:51;;;;;;;16.70;3.45;;;8.10;99.90;;;;;;5029246;28;20029;-83
2024/03/24 08:07:17;;;;;;;14.15;3.92;;;8.00;99.90;;;;;;5021528;28;20109;-83
2024/03/24 08:09:42;;;;;;;14.10;3.42;;;8.10;99.90;;;;;;5025861;28;20021;-84
2024/03/24 08:12:08;;;;;;;16.58;3.45;;;8.00;99.90;;;;;;5027004;28;20009;-84
2024/03/24 08:14:34;;;;;;;11.80;3.20;;;8.00;99.90;;;;;;5039780;28;20048;-84
2024/03/24 08:16:59;;;;;;;18.02;3.83;;;8.00;99.90;;;;;;5051872;28;20044;-84
2024/03/24 08:19:25;;;;;;;12.30;3.05;;;8.10;99.90;;;;;;5051550;28;20443;-84
2024/03/24 08:21:51;;;;;;;11.60;3.20;;;8.10;99.90;;;;;;5032374;28;20029;-83
2024/03/24 08:24:17;;;;;;;16.65;3.53;;;8.10;99.90;;;;;;5031781;28;20117;-84
2024/03/24 08:26:43;;;;;;;17.05;3.33;;;8.10;99.90;;;;;;5026570;28;20212;-84
2024/03/24 08:29:09;;;;;;;14.55;3.63;;;8.00;99.90;;;;;;5030755;28;20520;-84
2024/03/24 08:31:35;;;;;;;9.23;2.92;;;8.10;99.90;;;;;;5042608;28;20040;-85
2024/03/24 08:34:00;;;;;;;15.50;3.80;;;8.50;99.90;;;;;;5051322;28;20499;-85
2024/03/24 08:36:26;;;;;;;14.00;3.92;;;8.00;99.90;;;;;;5051922;28;20032;-84
2024/03/24 08:38:52;;;;;;;20.27;2.90;;;8.00;99.90;;;;;;5030954;28;20112;-84
2024/03/24 08:41:17;;;;;;;15.77;3.83;;;8.00;99.90;;;;;;5022479;28;20026;-84
2024/03/24 08:43:43;;;;;;;14.52;3.50;;;8.00;99.90;;;;;;5031041;28;20401;-85
2024/03/24 08:46:09;;;;;;;18.38;3.28;;;8.00;99.90;;;;;;5028569;28;20854;-84
2024/03/24 08:48:35;;;;;;;14.43;3.83;;;8.00;99.90;;;;;;5022962;28;20040;-84
2024/03/24 08:51:00;;;;;;;27.63;3.35;;;8.00;99.90;;;;;;5024569;28;20445;-84
2024/03/24 08:53:26;;;;;;;21.27;3.95;;;8.00;99.90;;;;;;5025548;28;20026;-84
2024/03/24 08:55:51;;;;;;;21.58;4.22;;;8.00;99.90;;;;;;5020397;28;20151;-83
2024/03/24 08:58:17;;;;;;;26.10;4.32;;;8.10;99.90;;;;;;5027833;28;20394;-82
2024/03/24 09:00:45;;;;;;;23.80;4.22;;;8.10;99.90;;;;;;5031003;28;20029;-84
2024/03/24 09:03:11;;;;;;;18.65;4.22;;;8.20;99.90;;;;;;5022210;28;20382;-84
2024/03/24 09:05:36;;;;;;;20.17;3.13;;;8.20;99.90;;;;;;5029724;28;20022;-84
2024/03/24 09:08:02;;;;;;;21.25;3.65;;;8.20;99.90;;;;;;5027902;28;20026;-83
2024/03/24 09:10:27;;;;;;;20.58;3.67;;;8.20;99.90;;;;;;5028857;28;20465;-88
2024/03/24 09:12:53;;;;;;;16.90;3.80;;;8.20;99.90;;;;;;5032514;28;20033;-84
2024/03/24 09:15:19;;;;;;;7.07;1.67;;;8.10;99.90;;;;;;5015606;28;20112;-84
2024/03/24 09:17:48;;;;;;;6.07;1.88;;;7.80;99.90;;;;;;5017278;28;20107;-85
2024/03/24 09:20:15;;;;;;;4.22;0.90;;;7.30;99.90;;;;;;5022872;28;20037;-87
2024/03/24 09:22:41;;;;;;;4.07;1.10;;;6.90;99.90;;;;;;5023155;28;20041;-86
2024/03/24 09:25:07;;;;;;;3.53;1.42;;;6.80;99.90;;;;;;5017905;28;20515;-86
2024/03/24 09:27:33;;;;;;;1.92;0.90;;;6.60;99.90;;;;;;5015594;28;20381;-86
2024/03/24 09:29:58;;;;;;;2.60;1.00;;;6.60;99.90;;;;;;5022709;28;20493;-86
2024/03/24 09:32:24;;;;;;;5.88;1.00;;;6.60;99.90;;;;;;5020434;28;20385;-85
2024/03/24 09:34:51;;;;;;;5.18;1.20;;;6.60;99.90;;;;;;5020451;28;20414;-85
2024/03/24 09:37:17;;;;;;;3.00;1.25;;;6.70;99.90;;;;;;5023953;28;20079;-84
2024/03/24 09:39:42;;;;;;;8.40;1.48;;;7.30;99.90;;;;;;5025527;28;20115;-84
2024/03/24 09:42:13;;;;;;;4.43;1.70;;;6.80;99.90;;;;;;5024992;28;20041;-86
2024/03/24 09:44:40;;;;;;;3.58;1.20;;;6.90;99.90;;;;;;5026197;28;20029;-85
2024/03/24 09:47:06;;;;;;;12.32;1.63;;;7.00;99.90;;;;;;5025627;28;20072;-85
2024/03/24 09:49:34;;;;;;;10.02;1.63;;;7.10;99.90;;;;;;5024151;28;20065;-85
2024/03/24 09:52:01;;;;;;;8.68;1.60;;;7.20;99.90;;;;;;5025725;28;20473;-84
2024/03/24 09:54:26;;;;;;;15.48;2.30;;;7.20;99.90;;;;;;5013881;28;20033;-82
2024/03/24 09:56:52;;;;;;;8.38;1.67;;;7.30;99.90;;;;;;5018223;28;20072;-88
2024/03/24 09:59:19;;;;;;;10.50;1.63;;;7.30;99.90;;;;;;5018651;28;20802;-83
2024/03/24 10:01:47;;;;;;;16.70;3.30;;;7.40;99.90;;;;;;5017005;28;20064;-84
2024/03/24 10:04:14;;;;;;;10.13;2.03;;;7.40;99.90;;;;;;5018739;28;20041;-85
2024/03/24 10:06:39;;;;;;;8.80;2.83;;;7.40;99.90;;;;;;5018061;28;20025;-84
2024/03/24 10:09:05;;;;;;;15.35;2.17;;;7.50;99.90;;;;;;5017303;28;20026;-84
2024/03/24 10:11:35;;;;;;;12.32;2.58;;;7.50;99.90;;;;;;5025456;28;20045;-85
2024/03/24 10:14:03;;;;;;;11.38;2.45;;;7.50;99.90;;;;;;5012664;28;20377;-87
2024/03/24 10:16:30;;;;;;;17.23;3.38;;;7.60;99.90;;;;;;5029320;28;20388;-86
2024/03/24 10:18:55;;;;;;;15.07;2.17;;;7.60;99.90;;;;;;5025879;28;20022;-86
2024/03/24 10:21:21;;;;;;;11.30;2.63;;;7.60;99.90;;;;;;5018676;28;20121;-86
2024/03/24 10:23:47;;;;;;;10.90;2.92;;;7.60;99.90;;;;;;5015119;28;20370;-86
2024/03/24 10:26:19;;;;;;;22.35;2.63;;;7.60;99.90;;;;;;5024961;28;20056;-86
2024/03/24 10:28:45;;;;;;;15.93;2.97;;;7.60;99.90;;;;;;5021442;28;20124;-85
2024/03/24 10:31:10;;;;;;;17.27;4.22;;;7.60;99.90;;;;;;5022722;28;20121;-86
2024/03/24 10:33:38;;;;;;;16.92;3.55;;;7.70;99.90;;;;;;5022883;28;20457;-86
2024/03/24 10:36:05;;;;;;;17.80;3.38;;;7.60;99.90;;;;;;5025914;28;20037;-86
2024/03/24 10:38:31;;;;;;;24.13;3.97;;;7.60;99.90;;;;;;5022136;28;20097;-85
2024/03/24 10:40:58;;;;;;;27.63;4.63;;;7.60;99.90;;;;;;5021211;28;20049;-85
2024/03/24 10:43:25;;;;;;;19.88;4.25;;;7.50;99.90;;;;;;5021176;28;20065;-86
2024/03/24 10:45:52;;;;;;;29.75;4.40;;;7.60;99.90;;;;;;5014361;28;20033;-85
2024/03/24 10:48:30;;;;;;;23.42;4.43;;;7.60;99.90;;;;;;5022180;28;20374;-86
2024/03/24 10:50:57;;;;;;;25.08;4.85;;;7.60;99.90;;;;;;5016016;28;20045;-84
2024/03/24 10:53:27;;;;;;;15.45;3.58;;;7.70;99.90;;;;;;5018729;28;20470;-85
2024/03/24 10:55:56;;;;;;;15.32;3.00;;;7.70;99.90;;;;;;5015985;28;20053;-84
2024/03/24 10:58:22;;;;;;;7.00;2.00;;;7.60;99.90;;;;;;5014933;28;20026;-85
2024/03/24 11:00:48;;;;;;;10.98;2.63;;;7.60;99.90;;;;;;5013815;28;20033;-84
2024/03/24 11:03:15;;;;;;;19.80;3.60;;;7.60;99.90;;;;;;5014891;28;20030;-85
2024/03/24 11:05:48;;;;;;;17.35;3.30;;;7.60;99.90;;;;;;5018548;28;20037;-85
2024/03/24 11:08:16;;;;;;;15.00;3.45;;;7.70;99.90;;;;;;5016471;28;20424;-84
2024/03/24 11:11:00;;;;;;;23.20;4.47;;;7.80;99.90;;;;;;5023624;28;20099;-84
2024/03/24 11:13:29;;;;;;;20.98;4.25;;;7.90;99.90;;;;;;5017355;28;20022;-84
2024/03/24 11:15:56;;;;;;;27.63;4.20;;;8.10;99.90;;;;;;5016549;28;20026;-85
2024/03/24 11:18:26;;;;;;;24.52;4.88;;;8.20;99.90;;;;;;5017152;28;20061;-85
2024/03/24 11:20:57;;;;;;;18.42;3.92;;;8.30;99.90;;;;;;5016134;28;20428;-84
2024/03/24 11:23:32;;;;;;;22.92;3.95;;;8.30;99.90;;;;;;5017271;28;20485;-85
2024/03/24 11:25:59;;;;;;;16.00;3.42;;;8.40;99.90;;;;;;5018003;28;20048;-84
2024/03/24 11:28:49;;;;;;;17.73;3.60;;;8.40;99.90;;;;;;5016552;28;20053;-91
2024/03/24 11:31:20;;;;;;;18.58;3.15;;;8.40;99.90;;;;;;5023768;28;20053;-91
2024/03/24 11:34:08;;;;;;;17.67;4.63;;;8.40;99.90;;;;;;5030090;28;20464;-90
2024/03/24 11:36:41;;;;;;;10.45;2.35;;;8.40;99.90;;;;;;5028192;28;20116;-91
2024/03/24 11:39:11;;;;;;;11.95;3.30;;;9.00;99.90;;;;;;5025320;28;20021;-92
2024/03/24 11:41:50;;;;;;;26.40;4.78;;;8.20;99.90;;;;;;5019493;28;20041;-93
2024/03/24 11:44:16;;;;;;;25.42;4.78;;;8.10;99.90;;;;;;5031813;28;20040;-92
2024/03/24 11:46:42;;;;;;;13.60;2.90;;;7.80;99.90;;;;;;5027704;28;20025;-90
2024/03/24 11:49:11;;;;;;;11.52;2.10;;;7.70;99.90;;;;;;5023997;28;20030;-90
2024/03/24 11:51:36;;;;;;;19.23;3.15;;;7.70;99.90;;;;;;5026139;28;20048;-89
2024/03/24 11:54:04;;;;;;;18.10;4.20;;;7.80;99.90;;;;;;5031952;28;20021;-89
2024/03/24 11:56:31;;;;;;;13.07;3.38;;;7.80;99.90;;;;;;5023842;28;20034;-89
2024/03/24 11:58:57;;;;;;;21.55;2.88;;;7.90;99.90;;;;;;5023253;28;20069;-90
2024/03/24 12:01:24;;;;;;;20.00;3.75;;;8.20;99.90;;;;;;5027965;28;20096;-88
2024/03/24 12:03:50;;;;;;;7.63;2.08;;;8.00;99.90;;;;;;5023002;28;20033;-88
2024/03/24 12:06:17;;;;;;;13.98;2.83;;;8.00;99.90;;;;;;5017964;28;20026;-89
2024/03/24 12:08:46;;;;;;;15.50;2.97;;;8.00;99.90;;;;;;5018285;28;20053;-88
2024/03/24 12:11:15;;;;;;;20.45;3.28;;;8.00;99.90;;;;;;5028720;28;20041;-89
2024/03/24 12:13:44;;;;;;;16.75;3.05;;;8.00;99.90;;;;;;5028465;28;20036;-87
2024/03/24 12:16:15;;;;;;;19.98;3.78;;;8.00;99.90;;;;;;5028366;28;20083;-93
2024/03/24 12:18:41;;;;;;;18.65;2.97;;;8.00;99.90;;;;;;5025384;28;20136;-91
2024/03/24 12:21:07;;;;;;;15.55;3.70;;;8.00;99.90;;;;;;5032314;28;20497;-89
2024/03/24 12:23:34;;;;;;;24.50;4.75;;;7.90;99.90;;;;;;5018429;28;20029;-90
2024/03/24 12:26:02;;;;;;;16.50;2.97;;;7.90;99.90;;;;;;5021723;28;20026;-90
2024/03/24 12:28:27;;;;;;;16.35;3.13;;;8.00;99.90;;;;;;5022478;28;20112;-86
2024/03/24 12:30:59;;;;;;;19.02;3.30;;;7.90;99.90;;;;;;5018856;28;20148;-87
2024/03/24 12:33:25;;;;;;;14.93;3.17;;;8.00;99.90;;;;;;5022170;28;20025;-88
2024/03/24 12:35:53;;;;;;;17.55;2.53;;;8.00;99.90;;;;;;5023720;28;20037;-88
2024/03/24 12:38:19;;;;;;;14.48;3.78;;;7.90;99.90;;;;;;5017972;28;20115;-89
2024/03/24 12:40:57;;;;;;;17.80;4.93;;;7.90;99.90;;;;;;5022763;28;20026;-87
2024/03/24 12:43:27;;;;;;;24.30;3.20;;;7.90;99.90;;;;;;5026886;28;20107;-88
2024/03/24 12:45:57;;;;;;;16.70;4.30;;;8.00;99.90;;;;;;5027441;28;20044;-87